Time;durP1;ratioP1;P1;durP2;ratioP2;P2;SDS_P1;SDS_P2;PMS_P1;PMS_P2;Temp;Humidity;BMP_temperature;BMP_pressure;BME280_temperature;BME280_humidity;BME280_pressure;Samples;Min_cycle;Max_cycle;Signal;HPM_P1;HPM_P2
2024/01/11 00:01:49;;;;;;;26.35;14.35;;;;;;;-0.15;100.00;102538.50;5046623;28;20032;-72
2024/01/11 00:04:15;;;;;;;25.77;13.20;;;;;;;-0.20;100.00;102557.03;5028722;28;20518;-72
2024/01/11 00:06:42;;;;;;;24.45;12.38;;;;;;;-0.20;100.00;102554.41;5045476;28;20036;-73
2024/01/11 00:09:08;;;;;;;24.38;11.93;;;;;;;-0.28;100.00;102527.53;5045420;28;20135;-73
2024/01/11 00:11:33;;;;;;;26.23;12.10;;;;;;;-0.17;100.00;102553.44;5046241;28;20552;-73
2024/01/11 00:13:58;;;;;;;23.95;12.68;;;;;;;-0.15;100.00;102539.34;5045770;28;20090;-73
2024/01/11 00:16:23;;;;;;;28.17;13.50;;;;;;;-0.12;100.00;102547.13;5042003;28;20037;-73
2024/01/11 00:18:49;;;;;;;27.85;14.00;;;;;;;-0.09;100.00;102544.41;5045940;28;20032;-72
2024/01/11 00:21:14;;;;;;;28.80;14.40;;;;;;;-0.04;100.00;102550.38;5039564;28;20139;-73
2024/01/11 00:23:39;;;;;;;29.70;14.73;;;;;;;-0.29;100.00;102512.69;5036217;28;20028;-72
2024/01/11 00:26:05;;;;;;;29.35;13.38;;;;;;;-0.32;100.00;102541.66;5046293;28;20052;-73
2024/01/11 00:28:30;;;;;;;28.73;15.38;;;;;;;-0.51;100.00;102523.88;5047010;28;20024;-72
2024/01/11 00:30:55;;;;;;;29.83;14.00;;;;;;;-0.53;100.00;102528.31;5019882;28;20025;-73
2024/01/11 00:33:21;;;;;;;27.48;14.32;;;;;;;-0.42;100.00;102535.84;5038878;28;20041;-72
2024/01/11 00:35:46;;;;;;;32.38;15.98;;;;;;;-0.47;100.00;102530.75;5044467;28;20036;-72
2024/01/11 00:38:12;;;;;;;34.33;15.13;;;;;;;-0.32;100.00;102549.53;5044901;28;20581;-72
2024/01/11 00:40:37;;;;;;;;;;;;;;;-0.32;100.00;102549.53;5038111;28;20484;-73
2024/01/11 00:43:02;;;;;;;25.33;12.43;;;;;;;-0.50;100.00;102537.84;5044689;28;19917;-73
2024/01/11 00:45:28;;;;;;;24.73;12.02;;;;;;;-0.57;100.00;102542.41;5027707;28;20140;-73
2024/01/11 00:47:53;;;;;;;26.15;13.00;;;;;;;-0.66;100.00;102526.94;5028048;28;20041;-73
2024/01/11 00:50:18;;;;;;;28.48;13.48;;;;;;;-0.60;100.00;102550.38;5027618;28;20040;-73
2024/01/11 00:52:44;;;;;;;;;;;;;;;-0.56;100.00;102551.13;5063356;28;20064;-73
2024/01/11 00:55:09;;;;;;;30.17;14.70;;;;;;;-0.69;100.00;102535.78;5048731;28;20011;-73
2024/01/11 00:57:34;;;;;;;;;;;;;;;-0.64;100.00;102567.97;5027306;28;20377;-73
2024/01/11 00:59:59;;;;;;;31.33;14.47;;;;;;;-0.61;100.00;102571.41;5054895;28;19971;-72
2024/01/11 01:02:25;;;;;;;31.65;15.75;;;;;;;-0.79;100.00;102567.59;5047464;28;20044;-72
2024/01/11 01:04:50;;;;;;;;;;;;;;;-0.62;100.00;102591.53;5049982;28;20047;-72
2024/01/11 01:07:15;;;;;;;30.67;12.70;;;;;;;-0.68;100.00;102581.22;5065370;28;19919;-72
2024/01/11 01:09:41;;;;;;;27.63;14.05;;;;;;;-0.70;100.00;102588.31;5048667;28;20094;-72
2024/01/11 01:12:06;;;;;;;33.45;15.10;;;;;;;-0.80;100.00;102571.94;5048212;28;20051;-72
2024/01/11 01:14:32;;;;;;;32.95;15.32;;;;;;;-1.17;100.00;102535.44;5049151;28;20069;-73
2024/01/11 01:16:57;;;;;;;;;;;;;;;-0.88;100.00;102593.16;5032349;28;20392;-72
2024/01/11 01:19:22;;;;;;;35.93;16.23;;;;;;;-0.90;100.00;102592.34;5059062;28;19963;-72
2024/01/11 01:21:47;;;;;;;;;;;;;;;-0.89;100.00;102608.91;5042773;28;20428;-72
2024/01/11 01:24:13;;;;;;;32.53;15.33;;;;;;;-1.04;100.00;102584.00;5049148;28;19912;-73
2024/01/11 01:26:38;;;;;;;33.47;14.00;;;;;;;-0.93;100.00;102602.06;5049473;28;20025;-72
2024/01/11 01:29:03;;;;;;;38.03;15.57;;;;;;;-1.08;100.00;102587.59;5031578;28;20048;-72
2024/01/11 01:31:29;;;;;;;35.60;15.48;;;;;;;-1.12;100.00;102592.09;5048195;28;20487;-72
2024/01/11 01:33:54;;;;;;;33.78;15.65;;;;;;;-1.12;100.00;102602.56;5048514;28;20130;-73
2024/01/11 01:36:20;;;;;;;;;;;;;;;-1.08;100.00;102616.44;5049563;28;20032;-72
2024/01/11 01:38:45;;;;;;;39.15;18.20;;;;;;;-1.10;100.00;102615.63;5048275;28;20367;-73
2024/01/11 01:41:11;;;;;;;;;;;;;;;-1.01;100.00;102627.63;5049545;28;20036;-72
2024/01/11 01:43:36;;;;;;;37.50;17.60;;;;;;;-0.90;100.00;102643.94;5047350;28;20728;-72
2024/01/11 01:46:02;;;;;;;;;;;;;;;-0.92;100.00;102636.09;5043083;28;20029;-72
2024/01/11 01:48:28;;;;;;;47.47;19.55;;;;;;;-0.83;100.00;102634.13;5046432;28;19919;-72
2024/01/11 01:50:54;;;;;;;44.60;18.58;;;;;;;-0.98;100.00;102607.44;5057814;28;20120;-72
2024/01/11 01:53:22;;;;;;;46.00;19.10;;;;;;;-0.89;100.00;102625.53;5039161;28;20029;-72
2024/01/11 01:55:48;;;;;;;52.28;19.58;;;;;;;-1.10;100.00;102611.25;5039362;28;20768;-72
2024/01/11 01:58:15;;;;;;;53.67;21.70;;;;;;;-1.09;100.00;102626.06;5048890;28;20074;-72
2024/01/11 02:00:41;;;;;;;55.53;22.20;;;;;;;-1.23;100.00;102603.75;5030969;28;20380;-72
2024/01/11 02:03:08;;;;;;;53.42;20.52;;;;;;;-1.22;100.00;102621.19;5044288;28;20083;-73
2024/01/11 02:05:34;;;;;;;54.28;20.98;;;;;;;-1.14;100.00;102643.69;5047237;28;20021;-72
2024/01/11 02:08:01;;;;;;;;;;;;;;;-0.96;100.00;102665.94;5041023;28;20043;-72
2024/01/11 02:10:26;;;;;;;56.13;21.88;;;;;;;-1.07;100.00;102631.28;5047211;28;19948;-72
2024/01/11 02:12:52;;;;;;;;;;;;;;;-1.04;100.00;102640.81;5031129;28;20075;-72
2024/01/11 02:15:17;;;;;;;61.60;21.05;;;;;;;-1.05;100.00;102632.09;5048364;28;19986;-73
2024/01/11 02:17:43;;;;;;;55.05;21.85;;;;;;;-0.99;100.00;102639.78;5048506;28;20119;-72
2024/01/11 02:20:09;;;;;;;57.40;22.10;;;;;;;-0.96;100.00;102655.47;5055795;28;20025;-72
2024/01/11 02:22:35;;;;;;;;;;;;;;;-0.93;100.00;102662.38;5046199;28;20060;-72
2024/01/11 02:25:02;;;;;;;60.40;23.58;;;;;;;-0.85;100.00;102661.25;5044691;28;19977;-72
2024/01/11 02:27:27;;;;;;;56.45;23.55;;;;;;;-0.76;100.00;102669.78;5063802;28;20578;-72
2024/01/11 02:29:52;;;;;;;;;;;;;;;-0.93;100.00;102644.03;5048885;28;20108;-72
2024/01/11 02:32:18;;;;;;;55.45;22.73;;;;;;;-0.95;100.00;102635.34;5030490;28;20310;-73
2024/01/11 02:34:44;;;;;;;60.63;20.45;;;;;;;-0.94;100.00;102632.66;5024363;28;20127;-72
2024/01/11 02:37:09;;;;;;;48.38;20.33;;;;;;;-1.08;100.00;102645.28;5046983;28;20053;-72
2024/01/11 02:39:35;;;;;;;;;;;;;;;-1.01;100.00;102657.31;5030547;28;20040;-72
2024/01/11 02:42:00;;;;;;;50.30;19.25;;;;;;;-1.19;100.00;102649.97;5046566;28;19913;-72
2024/01/11 02:44:26;;;;;;;;;;;;;;;-1.09;100.00;102680.28;5046792;28;20036;-72
2024/01/11 02:46:51;;;;;;;54.45;20.65;;;;;;;-1.14;100.00;102688.25;5042387;28;19990;-72
2024/01/11 02:49:17;;;;;;;;;;;;;;;-1.14;100.00;102701.34;5043615;28;20039;-72
2024/01/11 02:51:42;;;;;;;;;;;;;;;-1.09;100.00;102711.72;5041833;28;20367;-72
2024/01/11 02:54:07;;;;;;;42.00;16.13;;;;;;;-1.23;100.00;102704.22;5029292;28;19927;-72
2024/01/11 02:56:32;;;;;;;;;;;;;;;-1.25;100.00;102689.44;5030401;28;20035;-73
2024/01/11 02:58:58;;;;;;;52.63;14.57;;;;;;;-1.45;100.00;102682.94;5047953;28;20278;-72
2024/01/11 03:01:23;;;;;;;;;;;;;;;-1.43;100.00;102696.81;5048150;28;20071;-72
2024/01/11 03:03:48;;;;;;;34.63;14.97;;;;;;;-1.29;100.00;102710.47;5046135;28;19966;-72
2024/01/11 03:06:14;;;;;;;;;;;;;;;-1.43;100.00;102693.34;5039608;28;20071;-72
2024/01/11 03:08:39;;;;;;;30.53;13.57;;;;;;;-1.28;100.00;102717.44;5020736;28;19932;-72
2024/01/11 03:11:04;;;;;;;36.03;14.43;;;;;;;-1.06;100.00;102737.84;5038127;28;20033;-72
2024/01/11 03:13:31;;;;;;;31.70;13.45;;;;;;;-1.02;100.00;102729.03;5045325;28;20052;-72
2024/01/11 03:15:57;;;;;;;36.35;13.93;;;;;;;-1.17;100.00;102697.94;5038804;28;20035;-72
2024/01/11 03:18:22;;;;;;;;;;;;;;;-1.12;100.00;102707.44;5047568;28;20029;-72
2024/01/11 03:20:48;;;;;;;33.42;13.55;;;;;;;-0.97;100.00;102700.91;5045902;28;19914;-72
2024/01/11 03:23:13;;;;;;;;;;;;;;;-0.95;100.00;102683.38;5029554;28;20037;-72
2024/01/11 03:25:38;;;;;;;28.47;11.80;;;;;;;-0.90;100.00;102671.00;5045363;28;19966;-72
2024/01/11 03:28:04;;;;;;;31.95;12.68;;;;;;;-0.97;100.00;102663.34;5047146;28;20502;-72
2024/01/11 03:30:30;;;;;;;34.33;13.25;;;;;;;-1.11;100.00;102651.47;5047000;28;20087;-72
2024/01/11 03:32:55;;;;;;;;;;;;;;;-1.04;100.00;102657.41;5046199;28;20037;-72
2024/01/11 03:35:21;;;;;;;31.17;11.43;;;;;;;-0.95;100.00;102659.78;5039415;28;20337;-72
2024/01/11 03:37:46;;;;;;;35.38;11.63;;;;;;;-1.16;100.00;102642.00;5045939;28;20035;-72
2024/01/11 03:40:12;;;;;;;30.02;12.85;;;;;;;-0.98;100.00;102661.66;5045781;28;20064;-73
2024/01/11 03:42:37;;;;;;;32.78;12.98;;;;;;;-1.04;100.00;102656.56;5045710;28;20025;-72
2024/01/11 03:45:04;;;;;;;35.53;14.30;;;;;;;-1.02;100.00;102657.38;5021714;28;20127;-72
2024/01/11 03:47:29;;;;;;;31.15;12.48;;;;;;;-1.02;100.00;102666.09;5046438;28;20041;-72
2024/01/11 03:49:54;;;;;;;;;;;;;;;-1.03;100.00;102663.50;5041465;28;20083;-72
2024/01/11 03:52:20;;;;;;;33.22;13.00;;;;;;;-1.05;100.00;102663.56;5025281;28;19913;-73
2024/01/11 03:54:45;;;;;;;38.40;15.00;;;;;;;-1.03;100.00;102669.63;5046324;28;20024;-72
2024/01/11 03:57:11;;;;;;;35.83;13.38;;;;;;;-0.95;100.00;102669.41;5042028;28;20121;-72
2024/01/11 03:59:36;;;;;;;42.40;15.13;;;;;;;-1.00;100.00;102652.97;5045139;28;20131;-72
2024/01/11 04:02:01;;;;;;;66.45;13.52;;;;;;;-1.01;100.00;102644.22;5038260;28;20057;-74
2024/01/11 04:04:27;;;;;;;;;;;;;;;-0.91;100.00;102642.22;5045328;28;20040;-72
2024/01/11 04:06:52;;;;;;;32.20;13.33;;;;;;;-0.83;100.00;102647.25;5062041;28;19920;-72
2024/01/11 04:09:18;;;;;;;31.35;11.23;;;;;;;-1.01;100.00;102644.22;5061801;28;20020;-72
2024/01/11 04:11:43;;;;;;;31.02;12.77;;;;;;;-0.91;100.00;102643.06;5045204;28;20032;-71
2024/01/11 04:14:08;;;;;;;30.95;12.70;;;;;;;-1.01;100.00;102628.47;5027983;28;20480;-72
2024/01/11 04:16:34;;;;;;;25.73;10.70;;;;;;;-0.94;100.00;102623.94;5045280;28;20043;-71
2024/01/11 04:19:00;;;;;;;26.60;11.40;;;;;;;-0.97;100.00;102621.41;5015435;28;20033;-71
2024/01/11 04:21:29;;;;;;;23.17;10.35;;;;;;;-0.81;100.00;102637.56;5038241;28;20105;-72
2024/01/11 04:23:55;;;;;;;28.63;10.63;;;;;;;-0.96;100.00;102625.72;5037529;28;20060;-72
2024/01/11 04:26:21;;;;;;;20.73;9.02;;;;;;;-0.91;100.00;102621.25;5038993;28;20405;-72
2024/01/11 04:28:47;;;;;;;;;;;;;;;-0.90;100.00;102623.81;5041620;28;20051;-72
2024/01/11 04:31:14;;;;;;;27.38;10.90;;;;;;;-1.03;100.00;102611.97;5021824;28;20431;-72
2024/01/11 04:33:43;;;;;;;23.92;9.57;;;;;;;-0.81;100.00;102621.84;5020933;28;20082;-71
2024/01/11 04:36:09;;;;;;;26.95;10.95;;;;;;;-0.78;100.00;102616.50;5033062;28;20522;-73
2024/01/11 04:38:35;;;;;;;;;;;;;;;-0.74;100.00;102610.28;5043356;28;20048;-71
2024/01/11 04:41:00;;;;;;;27.77;10.35;;;;;;;-0.77;100.00;102626.06;5044970;28;20512;-71
2024/01/11 04:43:25;;;;;;;60.60;10.75;;;;;;;-0.90;100.00;102618.56;5053074;28;20440;-73
2024/01/11 04:45:51;;;;;;;25.45;10.15;;;;;;;-0.78;100.00;102634.88;5027934;28;20024;-71
2024/01/11 04:48:17;;;;;;;;;;;;;;;-0.79;100.00;102630.53;5045267;28;20025;-71
2024/01/11 04:50:43;;;;;;;30.58;11.00;;;;;;;-0.78;100.00;102632.25;5046003;28;19928;-71
2024/01/11 04:53:08;;;;;;;46.25;10.32;;;;;;;-0.82;100.00;102621.00;5044938;28;20124;-72
2024/01/11 04:55:34;;;;;;;;;;;;;;;-0.80;100.00;102631.41;5044448;28;20124;-71
2024/01/11 04:57:59;;;;;;;31.70;9.97;;;;;;;-0.81;100.00;102620.06;5039813;28;19920;-72
2024/01/11 05:00:24;;;;;;;;;;;;;;;-0.85;100.00;102610.56;5046166;28;20460;-71
2024/01/11 05:02:50;;;;;;;68.53;10.93;;;;;;;-0.77;100.00;102608.59;5044773;28;19916;-71
2024/01/11 05:05:15;;;;;;;;;;;;;;;-0.74;100.00;102607.66;5028092;28;20047;-72
2024/01/11 05:07:40;;;;;;;53.85;11.38;;;;;;;-0.92;100.00;102583.66;5045658;28;20440;-71
2024/01/11 05:10:06;;;;;;;;;;;;;;;-0.95;100.00;102586.38;5045075;28;20064;-72
2024/01/11 05:12:31;;;;;;;75.40;12.02;;;;;;;-1.09;100.00;102564.94;5045596;28;20027;-72
2024/01/11 05:14:57;;;;;;;28.08;8.70;;;;;;;-0.97;100.00;102596.03;5044254;28;20063;-71
2024/01/11 05:17:22;;;;;;;;;;;;;;;-0.88;100.00;102606.28;5045047;28;20041;-71
2024/01/11 05:19:47;;;;;;;33.67;10.10;;;;;;;-0.90;100.00;102588.88;5036298;28;20272;-72
2024/01/11 05:22:13;;;;;;;30.80;9.30;;;;;;;-1.01;100.00;102588.28;5045555;28;20141;-72
2024/01/11 05:24:38;;;;;;;29.85;10.48;;;;;;;-1.03;100.00;102592.72;5045470;28;20017;-72
2024/01/11 05:27:03;;;;;;;;;;;;;;;-0.86;100.00;102606.25;5035205;28;20041;-72
2024/01/11 05:29:29;;;;;;;28.80;9.30;;;;;;;-0.78;100.00;102613.88;5045672;28;19915;-72
2024/01/11 05:31:54;;;;;;;;;;;;;;;-0.81;100.00;102630.56;5044898;28;20090;-72
2024/01/11 05:34:19;;;;;;;24.33;8.97;;;;;;;-0.84;100.00;102638.53;5040671;28;19982;-72
2024/01/11 05:36:45;;;;;;;23.67;8.75;;;;;;;-0.66;100.00;102658.13;5045281;28;20385;-72
2024/01/11 05:39:10;;;;;;;62.88;13.35;;;;;;;-0.81;100.00;102633.19;5047047;28;20829;-72
2024/01/11 05:41:35;;;;;;;26.38;8.38;;;;;;;-0.70;100.00;102646.88;5048077;28;20112;-72
2024/01/11 05:44:01;;;;;;;24.75;9.05;;;;;;;-0.66;100.00;102642.38;5049111;28;20032;-72
2024/01/11 05:46:26;;;;;;;35.33;10.60;;;;;;;-0.67;100.00;102625.78;5044051;28;20135;-72
2024/01/11 05:48:52;;;;;;;20.88;8.13;;;;;;;-0.59;100.00;102635.19;5044261;28;20049;-72
2024/01/11 05:51:18;;;;;;;27.63;8.25;;;;;;;-0.59;100.00;102640.44;5027145;28;20057;-72
2024/01/11 05:53:43;;;;;;;;;;;;;;;-0.46;100.00;102634.78;5048901;28;20025;-72
2024/01/11 05:56:09;;;;;;;;;;;;;;;-0.37;100.00;102632.81;5064906;28;19912;-72
2024/01/11 05:58:36;;;;;;;19.27;7.03;;;;;;;-0.36;100.00;102617.00;5039725;28;19963;-72
2024/01/11 06:01:04;;;;;;;18.42;7.38;;;;;;;-0.29;100.00;102612.44;5049084;28;20469;-72
2024/01/11 06:03:29;;;;;;;23.88;8.07;;;;;;;-0.30;100.00;102597.59;5047626;28;20029;-72
2024/01/11 06:05:55;;;;;;;;;;;;;;;-0.26;100.00;102604.47;5049061;28;20029;-71
2024/01/11 06:08:20;;;;;;;;;;;;;;;-0.36;100.00;102592.53;5039963;28;20364;-72
2024/01/11 06:10:45;;;;;;;23.37;8.20;;;;;;;-0.48;100.00;102599.88;5039381;28;20444;-71
2024/01/11 06:13:11;;;;;;;25.70;8.20;;;;;;;-0.40;100.00;102597.00;5047615;28;20079;-71
2024/01/11 06:15:36;;;;;;;20.73;6.68;;;;;;;-0.29;100.00;102610.66;5047514;28;20036;-72
2024/01/11 06:18:02;;;;;;;23.92;8.52;;;;;;;-0.24;100.00;102616.63;5043122;28;20040;-72
2024/01/11 06:20:27;;;;;;;;;;;;;;;-0.18;100.00;102628.72;5031001;28;20032;-71
2024/01/11 06:22:52;;;;;;;27.07;9.97;;;;;;;-0.24;100.00;102634.16;5047458;28;20376;-72
2024/01/11 06:25:18;;;;;;;26.75;8.30;;;;;;;-0.16;100.00;102637.41;5038782;28;20036;-72
2024/01/11 06:27:44;;;;;;;23.88;8.15;;;;;;;-0.19;100.00;102637.50;5047194;28;20033;-71
2024/01/11 06:30:10;;;;;;;25.73;9.05;;;;;;;-0.26;100.00;102633.34;5047332;28;20029;-71
2024/01/11 06:32:35;;;;;;;24.10;8.18;;;;;;;-0.22;100.00;102627.09;5048209;28;20396;-71
2024/01/11 06:35:01;;;;;;;23.95;9.07;;;;;;;-0.14;100.00;102626.84;5042130;28;20171;-72
2024/01/11 06:37:27;;;;;;;26.73;8.55;;;;;;;-0.23;100.00;102609.63;5027102;28;20025;-72
2024/01/11 06:39:52;;;;;;;;;;;;;;;-0.29;100.00;102609.81;5043549;28;20034;-72
2024/01/11 06:42:18;;;;;;;;;;;;;;;-0.17;100.00;102625.19;5042542;28;19954;-71
2024/01/11 06:44:43;;;;;;;23.97;7.17;;;;;;;-0.19;100.00;102624.38;5046510;28;19986;-72
2024/01/11 06:47:08;;;;;;;22.15;7.30;;;;;;;-0.17;100.00;102619.94;5046958;28;20051;-72
2024/01/11 06:49:34;;;;;;;20.63;7.13;;;;;;;-0.16;100.00;102626.06;5029333;28;20111;-71
2024/01/11 06:51:59;;;;;;;21.02;8.02;;;;;;;-0.25;100.00;102616.69;5047714;28;20188;-71
2024/01/11 06:54:25;;;;;;;21.85;6.97;;;;;;;-0.34;100.00;102606.47;5030024;28;20079;-71
2024/01/11 06:56:50;;;;;;;23.85;8.60;;;;;;;-0.21;100.00;102610.44;5030428;28;20082;-72
2024/01/11 06:59:16;;;;;;;23.35;7.28;;;;;;;-0.14;100.00;102614.59;5048002;28;20890;-72
2024/01/11 07:01:41;;;;;;;18.63;7.38;;;;;;;-0.15;100.00;102618.13;5047732;28;20156;-71
2024/01/11 07:04:06;;;;;;;29.92;7.28;;;;;;;-0.18;100.00;102615.59;5029615;28;20069;-71
2024/01/11 07:06:32;;;;;;;24.42;6.53;;;;;;;-0.26;100.00;102612.34;5046018;28;20047;-72
2024/01/11 07:08:58;;;;;;;17.45;4.97;;;;;;;-0.12;100.00;102622.41;5046688;28;20055;-71
2024/01/11 07:11:23;;;;;;;17.92;6.47;;;;;;;-0.22;100.00;102620.06;5046538;28;20082;-71
2024/01/11 07:13:48;;;;;;;20.15;5.75;;;;;;;-0.31;100.00;102616.88;5046995;28;20603;-71
2024/01/11 07:16:14;;;;;;;20.73;6.03;;;;;;;-0.23;100.00;102636.75;5046319;28;20492;-71
2024/01/11 07:18:39;;;;;;;19.50;6.30;;;;;;;-0.25;100.00;102633.28;5046386;28;20515;-71
2024/01/11 07:21:04;;;;;;;21.05;5.82;;;;;;;-0.30;100.00;102643.09;5039691;28;20037;-72
2024/01/11 07:23:31;;;;;;;20.75;5.78;;;;;;;-0.23;100.00;102652.50;5046032;28;20474;-72
2024/01/11 07:25:56;;;;;;;15.32;4.63;;;;;;;-0.19;100.00;102658.50;5047134;28;20021;-72
2024/01/11 07:28:25;;;;;;;18.38;6.10;;;;;;;-0.36;100.00;102645.88;5045965;28;20431;-73
2024/01/11 07:30:53;;;;;;;15.00;5.40;;;;;;;-0.21;100.00;102660.34;5025658;28;20049;-72
2024/01/11 07:33:20;;;;;;;12.98;4.63;;;;;;;-0.15;100.00;102652.25;5028950;28;20083;-73
2024/01/11 07:35:47;;;;;;;18.15;5.50;;;;;;;-0.06;100.00;102641.47;5046790;28;20064;-72
2024/01/11 07:38:12;;;;;;;14.93;6.03;;;;;;;0.01;100.00;102636.03;5041407;28;20043;-72
2024/01/11 07:40:37;;;;;;;13.40;4.82;;;;;;;-0.05;100.00;102632.69;5045839;28;20029;-72
2024/01/11 07:43:04;;;;;;;17.20;5.50;;;;;;;0.06;100.00;102637.59;5029270;28;20490;-72
2024/01/11 07:45:30;;;;;;;13.65;6.07;;;;;;;0.10;100.00;102628.72;5046606;28;20033;-72
2024/01/11 07:47:55;;;;;;;12.98;4.68;;;;;;;0.09;100.00;102623.50;5046895;28;20099;-72
2024/01/11 07:50:20;;;;;;;16.52;5.45;;;;;;;0.08;100.00;102624.44;5036885;28;20041;-72
2024/01/11 07:52:46;;;;;;;23.42;5.47;;;;;;;0.18;100.00;102623.22;5038279;28;20033;-72
2024/01/11 07:55:12;;;;;;;16.92;5.53;;;;;;;0.13;100.00;102620.72;5028592;28;20029;-72
2024/01/11 07:57:38;;;;;;;13.60;4.60;;;;;;;0.11;100.00;102614.66;5045508;28;20450;-72
2024/01/11 08:00:06;;;;;;;16.58;5.72;;;;;;;0.08;100.00;102614.78;5036320;28;20072;-72
2024/01/11 08:02:38;;;;;;;16.30;5.03;;;;;;;0.07;100.00;102626.19;5046502;28;20044;-72
2024/01/11 08:05:04;;;;;;;13.90;4.65;;;;;;;0.11;100.00;102624.31;5044913;28;20380;-72
2024/01/11 08:07:30;;;;;;;12.15;5.30;;;;;;;0.17;100.00;102614.47;5040599;28;20126;-72
2024/01/11 08:09:56;;;;;;;11.63;4.68;;;;;;;0.12;100.00;102608.53;5028526;28;20072;-72
2024/01/11 08:12:21;;;;;;;21.60;5.85;;;;;;;0.05;100.00;102606.13;5035466;28;20044;-72
2024/01/11 08:14:47;;;;;;;12.88;4.70;;;;;;;0.01;100.00;102597.50;5023116;28;20564;-72
2024/01/11 08:17:13;;;;;;;22.95;5.30;;;;;;;0.15;100.00;102604.94;5045204;28;20045;-72
2024/01/11 08:19:39;;;;;;;16.40;5.10;;;;;;;0.16;100.00;102604.00;5040814;28;20029;-72
2024/01/11 08:22:05;;;;;;;17.85;5.80;;;;;;;0.19;100.00;102590.81;5044878;28;20499;-72
2024/01/11 08:24:31;;;;;;;15.82;5.65;;;;;;;0.23;100.00;102591.53;5042530;28;20037;-72
2024/01/11 08:26:57;;;;;;;18.05;5.45;;;;;;;0.18;100.00;102584.66;5023769;28;20408;-72
2024/01/11 08:29:22;;;;;;;19.58;4.68;;;;;;;0.26;100.00;102589.69;5046370;28;20032;-72
2024/01/11 08:31:48;;;;;;;16.20;5.72;;;;;;;0.30;100.00;102591.28;5041373;28;20159;-72
2024/01/11 08:34:14;;;;;;;16.30;4.97;;;;;;;0.37;100.00;102598.03;5033785;28;20061;-73
2024/01/11 08:36:39;;;;;;;15.10;5.20;;;;;;;0.33;100.00;102599.09;5013320;28;20635;-72
2024/01/11 08:39:05;;;;;;;12.10;5.05;;;;;;;0.38;100.00;102602.41;5036284;28;20502;-72
2024/01/11 08:41:31;;;;;;;13.07;4.18;;;;;;;0.37;100.00;102600.66;5040856;28;20036;-73
2024/01/11 08:43:57;;;;;;;15.57;5.75;;;;;;;0.34;100.00;102607.81;5022284;28;20108;-72
2024/01/11 08:46:26;;;;;;;20.92;6.15;;;;;;;0.24;100.00;102606.41;5037277;28;20492;-72
2024/01/11 08:48:56;;;;;;;17.73;6.18;;;;;;;0.15;100.00;102616.28;5035766;28;20024;-72
2024/01/11 08:51:22;;;;;;;16.17;6.28;;;;;;;0.28;100.00;102626.41;5030543;28;20123;-72
2024/01/11 08:53:47;;;;;;;17.65;7.53;;;;;;;0.27;100.00;102612.41;5042950;28;20128;-71
2024/01/11 08:56:13;;;;;;;19.63;7.18;;;;;;;0.33;100.00;102600.84;5040023;28;20037;-73
2024/01/11 08:58:42;;;;;;;;;;;;;;;0.36;100.00;102614.75;5034172;28;20033;-72
2024/01/11 09:01:08;;;;;;;17.35;6.13;;;;;;;0.46;100.00;102610.03;5024070;28;19916;-72
2024/01/11 09:03:35;;;;;;;19.67;6.65;;;;;;;0.30;100.00;102593.06;5018826;28;20030;-72
2024/01/11 09:06:01;;;;;;;16.02;5.53;;;;;;;0.41;100.00;102596.19;5043568;28;20067;-72
2024/01/11 09:08:26;;;;;;;24.25;8.80;;;;;;;0.41;100.00;102586.53;5036057;28;20139;-72
2024/01/11 09:10:52;;;;;;;20.75;6.95;;;;;;;0.45;100.00;102578.56;5036761;28;20045;-72
2024/01/11 09:13:18;;;;;;;18.95;6.88;;;;;;;0.51;100.00;102592.31;5036543;28;20038;-72
2024/01/11 09:15:43;;;;;;;19.20;7.10;;;;;;;0.53;100.00;102590.50;5037774;28;20029;-72
2024/01/11 09:18:09;;;;;;;17.45;6.03;;;;;;;0.59;100.00;102589.47;5031801;28;20037;-72
2024/01/11 09:20:35;;;;;;;29.20;7.97;;;;;;;0.54;100.00;102581.72;5031725;28;20021;-72
2024/01/11 09:23:03;;;;;;;19.95;7.20;;;;;;;0.56;100.00;102581.66;5048590;28;20635;-72
2024/01/11 09:25:29;;;;;;;20.45;6.85;;;;;;;0.55;100.00;102570.28;5040851;28;20041;-72
2024/01/11 09:27:55;;;;;;;24.83;7.30;;;;;;;0.54;100.00;102587.00;5044977;28;20029;-72
2024/01/11 09:30:20;;;;;;;30.55;7.70;;;;;;;0.56;100.00;102585.16;5049398;28;20501;-72
2024/01/11 09:32:45;;;;;;;21.17;6.80;;;;;;;0.58;100.00;102578.06;5040666;28;20158;-72
2024/01/11 09:35:11;;;;;;;18.08;6.63;;;;;;;0.71;100.00;102585.53;5043173;28;20060;-73
2024/01/11 09:37:36;;;;;;;23.30;8.05;;;;;;;0.66;100.00;102566.44;5045241;28;20041;-72
2024/01/11 09:40:02;;;;;;;22.33;7.78;;;;;;;0.74;100.00;102577.53;5048329;28;20037;-72
2024/01/11 09:42:28;;;;;;;32.00;9.18;;;;;;;0.67;100.00;102566.38;5047930;28;20029;-72
2024/01/11 09:44:55;;;;;;;23.98;8.43;;;;;;;0.72;100.00;102564.44;5023977;28;20025;-72
2024/01/11 09:47:21;;;;;;;17.35;6.75;;;;;;;0.79;100.00;102576.44;5049282;28;20045;-72
2024/01/11 09:49:50;;;;;;;28.05;8.10;;;;;;;0.74;100.00;102573.13;5048813;28;20131;-72
2024/01/11 09:52:19;;;;;;;27.33;7.82;;;;;;;0.82;100.00;102584.25;5041688;28;20116;-72
2024/01/11 09:54:45;;;;;;;27.70;9.68;;;;;;;0.84;100.00;102590.31;5043869;28;20025;-72
2024/01/11 09:57:10;;;;;;;26.67;7.85;;;;;;;0.89;100.00;102598.03;5041509;28;20032;-72
2024/01/11 09:59:36;;;;;;;30.75;8.85;;;;;;;0.99;100.00;102609.09;5030529;28;20029;-72
2024/01/11 10:02:02;;;;;;;20.15;8.48;;;;;;;0.83;100.00;102596.47;5045851;28;20039;-72
2024/01/11 10:04:28;;;;;;;29.38;10.85;;;;;;;0.77;100.00;102604.59;5047140;28;20447;-73
2024/01/11 10:06:55;;;;;;;22.92;9.18;;;;;;;0.88;100.00;102625.25;5047498;28;20052;-73
2024/01/11 10:09:20;;;;;;;29.00;10.90;;;;;;;0.88;100.00;102612.09;5047521;28;20029;-72
2024/01/11 10:11:46;;;;;;;24.25;8.20;;;;;;;0.91;100.00;102614.59;5047321;28;20866;-72
2024/01/11 10:14:15;;;;;;;18.70;7.45;;;;;;;0.94;100.00;102611.88;5046949;28;20041;-72
2024/01/11 10:16:43;;;;;;;31.27;10.80;;;;;;;0.98;100.00;102624.03;5030762;28;20029;-72
2024/01/11 10:19:10;;;;;;;22.20;8.23;;;;;;;1.06;100.00;102621.09;5048648;28;20033;-72
2024/01/11 10:21:39;;;;;;;28.42;11.07;;;;;;;1.14;100.00;102628.72;5040327;28;20083;-72
2024/01/11 10:24:04;;;;;;;29.92;8.65;;;;;;;1.03;100.00;102605.41;5046481;28;20033;-72
2024/01/11 10:26:30;;;;;;;32.70;10.65;;;;;;;1.10;100.00;102604.31;5047616;28;20086;-72
2024/01/11 10:28:59;;;;;;;31.98;9.07;;;;;;;1.09;100.00;102597.31;5045382;28;20033;-73
2024/01/11 10:31:28;;;;;;;35.38;11.85;;;;;;;1.01;100.00;102573.94;5043411;28;20032;-72
2024/01/11 10:33:54;;;;;;;31.27;9.73;;;;;;;1.16;100.00;102574.28;5046885;28;20404;-72
2024/01/11 10:36:19;;;;;;;24.40;9.68;;;;;;;1.31;100.00;102580.72;5047303;28;20033;-73
2024/01/11 10:38:47;;;;;;;37.75;10.48;;;;;;;1.36;100.00;102573.50;5046471;28;20041;-73
2024/01/11 10:41:14;;;;;;;27.90;10.73;;;;;;;1.40;100.00;102570.69;5040397;28;20388;-72
2024/01/11 10:43:41;;;;;;;29.63;9.55;;;;;;;1.55;100.00;102568.41;5046859;28;20037;-72
2024/01/11 10:46:09;;;;;;;31.13;10.13;;;;;;;1.55;100.00;102561.38;5019874;28;20846;-73
2024/01/11 10:48:41;;;;;;;26.23;9.65;;;;;;;1.58;100.00;102565.66;5030378;28;20037;-73
2024/01/11 10:51:13;;;;;;;27.00;9.57;;;;;;;1.47;100.00;102560.81;5046641;28;20033;-73
2024/01/11 10:53:45;;;;;;;21.02;8.82;;;;;;;1.56;100.00;102578.03;5029671;28;20036;-73
2024/01/11 10:56:12;;;;;;;30.98;9.23;;;;;;;1.59;100.00;102584.03;5046600;28;20043;-72
2024/01/11 10:58:41;;;;;;;27.60;9.90;;;;;;;1.48;100.00;102571.28;5039343;28;20037;-73
2024/01/11 11:01:08;;;;;;;25.83;10.10;;;;;;;1.45;100.00;102578.41;5047812;28;20033;-72
2024/01/11 11:03:35;;;;;;;32.45;11.60;;;;;;;1.56;100.00;102567.50;5046427;28;20440;-72
2024/01/11 11:06:01;;;;;;;32.78;10.55;;;;;;;1.76;100.00;102572.00;5006402;28;20056;-72
2024/01/11 11:08:26;;;;;;;32.42;12.20;;;;;;;1.84;100.00;102567.25;5046556;28;20571;-72
2024/01/11 11:11:05;;;;;;;31.20;10.77;;;;;;;1.72;100.00;102554.59;5046155;28;20464;-72
2024/01/11 11:13:31;;;;;;;32.42;10.48;;;;;;;1.85;100.00;102566.31;5029453;28;20040;-73